This is the latest recevied weather packets stored in our database for station/object K5SVV. If no packets are shown the sender has not sent any weather packets the latest 10 day(s).
| Time | Temp. | Humidity | Pressure | Rain* | Wind** | Luminosity | Snow |
|---|---|---|---|---|---|---|---|
| 1788286259 | 35.56° C | 48% | 1015.7 hPa | 0 mm | - | 856 W/m² | - |
| 1788285958 | 35.56° C | 47% | 1015.8 hPa | 0 mm | - | 904 W/m² | - |
| 1788285652 | 35.56° C | 47% | 1015.9 hPa | 0 mm | - | 206 W/m² | - |
| 1788285346 | 36.11° C | 47% | 1016 hPa | 0 mm | - | 226 W/m² | - |
| 1788285040 | 36.67° C | 45% | 1016.1 hPa | 0 mm | - | 844 W/m² | - |
| 1788284736 | 35.56° C | 45% | 1016.1 hPa | 0 mm | - | 822 W/m² | - |
| 1788284432 | 36.11° C | 47% | 1016.3 hPa | 0 mm | - | 851 W/m² | - |
| 1788284127 | 36.67° C | 45% | 1016.1 hPa | 0 mm | - | 349 W/m² | - |
| 1788283823 | 36.11° C | 46% | 1016.3 hPa | 0 mm | - | 881 W/m² | - |
| 1788283518 | 35° C | 48% | 1016.6 hPa | 0 mm | - | 881 W/m² | - |
| 1788283216 | 34.44° C | 52% | 1016.4 hPa | 0 mm | - | 355 W/m² | - |
| 1788282915 | 34.44° C | 51% | 1016.3 hPa | 0 mm | - | 193 W/m² | - |
| 1788282614 | 33.89° C | 53% | 1016.6 hPa | 0 mm | - | 844 W/m² | - |
| 1788282309 | 34.44° C | 51% | 1016.2 hPa | 0 mm | - | 696 W/m² | - |
| 1788282008 | 33.33° C | 54% | 1016.4 hPa | 0 mm | - | 817 W/m² | - |
| 1788281721 | 33.33° C | 54% | 1016.4 hPa | 0 mm | - | 198 W/m² | - |
| 1788281398 | 34.44° C | 53% | 1016.7 hPa | 0 mm | - | 185 W/m² | - |
| 1788281094 | 34.44° C | 52% | 1016.6 hPa | 0 mm | - | 170 W/m² | - |
| 1788280789 | 33.89° C | 54% | 1016.6 hPa | 0 mm | - | 834 W/m² | - |
| 1788280484 | 34.44° C | 52% | 1016.8 hPa | 0 mm | - | 179 W/m² | - |
| 1788280183 | 33.89° C | 53% | 1016.4 hPa | 0 mm | - | 766 W/m² | - |
| 1788279878 | 33.89° C | 55% | 1016.7 hPa | 0 mm | - | 783 W/m² | - |
| 1788279577 | 33.33° C | 56% | 1016.8 hPa | 0 mm | - | 767 W/m² | - |
| 1788279277 | 33.33° C | 55% | 1017.1 hPa | 0 mm | - | 257 W/m² | - |
| 1788278972 | 33.33° C | 55% | 1016.9 hPa | 0 mm | - | 803 W/m² | - |
* Rain latest hour (hover to see other rain measurements)
** Current wind speed in m/s (hover to see current wind gust speed)